Observation data for Turkey on 05/26/2019      Previous  Date  Next       Current Mesonet Observations  Soil Data  Daily Summary Page  Observations in Plain Language
KTUR 260500Z 06007KT 18/16 A2993 RMK A01 T01820161  RH  089%=      5-min Rain = 0
KTUR 260505Z 06007KT 18/16 A2993 RMK A01 T01820161  RH  089%=      5-min Rain = 0
KTUR 260510Z 07008KT 18/16 A2993 RMK A01 T01820161  RH  090%=      5-min Rain = 0
KTUR 260515Z 08009KT 18/16 A2993 RMK A01 T01830163  RH  090%=      5-min Rain = 0
KTUR 260520Z 09010KT 18/16 A2994 RMK A01 T01840164  RH  090%=      5-min Rain = 0
KTUR 260525Z 09010KT 19/17 A2994 RMK A01 T01850167  RH  091%=      5-min Rain = 0
KTUR 260530Z 10009KT 19/17 A2994 RMK A01 T01860168  RH  091%=      5-min Rain = 0
KTUR 260535Z 10009KT 19/17 A2994 RMK A01 T01860169  RH  092%=      5-min Rain = 0
KTUR 260540Z 11009KT 19/17 A2994 RMK A01 T01860171  RH  093%=      5-min Rain = 0
KTUR 260545Z 12007KT 19/17 A2994 RMK A01 T01870172  RH  093%=      5-min Rain = 0
KTUR 260550Z 12007KT 19/17 A2995 RMK A01 T01870174  RH  094%=      5-min Rain = 0
KTUR 260555Z 12007KT 19/18 A2994 RMK A01 T01880175  RH  095%=      5-min Rain = 0
KTUR 260600Z 12007KT 19/18 A2994 RMK A01 T01890176  RH  095%=      5-min Rain = 0
KTUR 260605Z 12007KT 19/18 A2994 RMK A01 T01880176  RH  095%=      5-min Rain = 0
KTUR 260610Z 12007KT 19/18 A2994 RMK A01 T01870176  RH  096%=      5-min Rain = 0
KTUR 260615Z 13006KT 19/18 A2994 RMK A01 T01860175  RH  096%=      5-min Rain = 0
KTUR 260620Z 14006KT 19/18 A2994 RMK A01 T01850176  RH  097%=      5-min Rain = 0
KTUR 260625Z 14006KT 19/18 A2994 RMK A01 T01850177  RH  097%=      5-min Rain = 0
KTUR 260630Z 14006KT 19/18 A2994 RMK A01 T01850177  RH  097%=      5-min Rain = 0
KTUR 260635Z 14006KT 19/18 A2994 RMK A01 T01850178  RH  098%=      5-min Rain = 0
KTUR 260640Z 14006KT 19/18 A2994 RMK A01 T01860178  RH  098%=      5-min Rain = 0
KTUR 260645Z 14006KT 19/18 A2994 RMK A01 T01860179  RH  098%=      5-min Rain = 0
KTUR 260650Z 15006KT 19/18 A2994 RMK A01 T01860179  RH  098%=      5-min Rain = 0
KTUR 260655Z 15007KT 19/18 A2994 RMK A01 T01860180  RH  098%=      5-min Rain = 0
KTUR 260700Z 15007KT 19/18 A2994 RMK A01 T01870181  RH  099%=      5-min Rain = 0
KTUR 260705Z 15007KT 19/18 A2994 RMK A01 T01880182  RH  099%=      5-min Rain = 0
KTUR 260710Z 15007KT 19/18 A2994 RMK A01 T01900184  RH  099%=      5-min Rain = 0
KTUR 260715Z 16005KT 19/18 A2994 RMK A01 T01880182  RH  099%=      5-min Rain = 0
KTUR 260720Z 17005KT 18/18 A2994 RMK A01 T01840178  RH  099%=      5-min Rain = 0
KTUR 260725Z 17004KT 18/18 A2994 RMK A01 T01820176  RH  099%=      5-min Rain = 0
KTUR 260730Z 17004KT 18/17 A2995 RMK A01 T01790174  RH  099%=      5-min Rain = 0
KTUR 260735Z 17004KT 18/17 A2995 RMK A01 T01790174  RH  099%=      5-min Rain = 0
KTUR 260740Z 17004KT 18/17 A2995 RMK A01 T01800174  RH  099%=      5-min Rain = 0
KTUR 260745Z 17004KT 18/18 A2995 RMK A01 T01800175  RH  099%=      5-min Rain = 0
KTUR 260750Z 17004KT 18/18 A2995 RMK A01 T01800175  RH  099%=      5-min Rain = 0
KTUR 260755Z 17004KT 18/18 A2995 RMK A01 T01810176  RH  099%=      5-min Rain = 0
KTUR 260800Z 17004KT 18/18 A2995 RMK A01 T01810176  RH  099%=      5-min Rain = 0
KTUR 260805Z 17004KT 18/18 A2995 RMK A01 T01810176  RH  099%=      5-min Rain = 0
KTUR 260810Z 16004KT 18/18 A2995 RMK A01 T01810176  RH  099%=      5-min Rain = 0
KTUR 260815Z 16004KT 18/18 A2995 RMK A01 T01810176  RH  099%=      5-min Rain = 0
KTUR 260820Z 15005KT 18/18 A2995 RMK A01 T01810176  RH  099%=      5-min Rain = 0
KTUR 260825Z 15005KT 18/18 A2995 RMK A01 T01820177  RH  099%=      5-min Rain = 0
KTUR 260830Z 15005KT 18/18 A2995 RMK A01 T01840179  RH  100%=      5-min Rain = 0
KTUR 260835Z 14005KT 19/18 A2994 RMK A01 T01860181  RH  100%=      5-min Rain = 0
KTUR 260840Z 14005KT 19/18 A2995 RMK A01 T01860181  RH  100%=      5-min Rain = 0
KTUR 260845Z 14005KT 19/18 A2995 RMK A01 T01850181  RH  100%=      5-min Rain = 0
KTUR 260850Z 14004KT 19/18 A2995 RMK A01 T01850181  RH  100%=      5-min Rain = 0
KTUR 260855Z 14004KT 19/18 A2995 RMK A01 T01850181  RH  100%=      5-min Rain = 0
KTUR 260900Z 14005KT 19/18 A2995 RMK A01 T01850181  RH  100%=      5-min Rain = 0
KTUR 260905Z 13005KT 19/18 A2995 RMK A01 T01850180  RH  100%=      5-min Rain = 0
KTUR 260910Z 13005KT 18/18 A2995 RMK A01 T01840180  RH  100%=      5-min Rain = 0
KTUR 260915Z 13005KT 18/18 A2995 RMK A01 T01840179  RH  100%=      5-min Rain = 0
KTUR 260920Z 12005KT 18/18 A2995 RMK A01 T01840180  RH  100%=      5-min Rain = 0
KTUR 260925Z 12004KT 19/18 A2995 RMK A01 T01850180  RH  100%=      5-min Rain = 0
KTUR 260930Z 12005KT 19/18 A2995 RMK A01 T01850180  RH  100%=      5-min Rain = 0
KTUR 260935Z 12005KT 18/18 A2995 RMK A01 T01840180  RH  100%=      5-min Rain = 0
KTUR 260940Z 11006KT 18/18 A2995 RMK A01 T01840180  RH  100%=      5-min Rain = 0
KTUR 260945Z 11006KT 18/18 A2995 RMK A01 T01840179  RH  100%=      5-min Rain = 0
KTUR 260950Z 11006KT 18/18 A2995 RMK A01 T01830179  RH  100%=      5-min Rain = 0
KTUR 260955Z 11006KT 18/18 A2995 RMK A01 T01830179  RH  100%=      5-min Rain = 0
KTUR 261000Z 11006KT 18/18 A2995 RMK A01 T01830179  RH  100%=      5-min Rain = 0
KTUR 261005Z 11006KT 18/18 A2995 RMK A01 T01840180  RH  100%=      5-min Rain = 0
KTUR 261010Z 11006KT 19/18 A2995 RMK A01 T01850181  RH  100%=      5-min Rain = 0
KTUR 261015Z 11006KT 19/18 A2995 RMK A01 T01850181  RH  100%=      5-min Rain = 0
KTUR 261020Z 11006KT 19/18 A2996 RMK A01 T01860182  RH  100%=      5-min Rain = 0
KTUR 261025Z 11006KT 19/18 A2996 RMK A01 T01870183  RH  100%=      5-min Rain = 0
KTUR 261030Z 11006KT 19/18 A2996 RMK A01 T01870183  RH  100%=      5-min Rain = 0
KTUR 261035Z 10006KT 19/18 A2996 RMK A01 T01870183  RH  100%=      5-min Rain = 0.01
KTUR 261040Z 10007KT 19/18 A2995 RMK A01 T01870183  RH  100%=      5-min Rain = 0
KTUR 261045Z 10006KT 19/18 A2996 RMK A01 T01880184  RH  100%=      5-min Rain = 0
KTUR 261050Z 10006KT 19/18 A2996 RMK A01 T01880184  RH  100%=      5-min Rain = 0
KTUR 261055Z 10006KT 19/18 A2996 RMK A01 T01890184  RH  100%=      5-min Rain = 0
KTUR 261100Z 10005KT 19/19 A2996 RMK A01 T01890185  RH  100%=      5-min Rain = 0
KTUR 261105Z 11004KT 19/19 A2996 RMK A01 T01890185  RH  100%=      5-min Rain = 0
KTUR 261110Z 11005KT 19/19 A2996 RMK A01 T01890185  RH  100%=      5-min Rain = 0
KTUR 261115Z 10005KT 19/19 A2996 RMK A01 T01890185  RH  100%=      5-min Rain = 0
KTUR 261120Z 10005KT 19/19 A2997 RMK A01 T01890185  RH  100%=      5-min Rain = 0
KTUR 261125Z 10005KT 19/19 A2997 RMK A01 T01900185  RH  100%=      5-min Rain = 0
KTUR 261130Z 10005KT 19/19 A2997 RMK A01 T01900186  RH  100%=      5-min Rain = 0
KTUR 261135Z 10005KT 19/19 A2997 RMK A01 T01900186  RH  100%=      5-min Rain = 0
KTUR 261140Z 10005KT 19/19 A2997 RMK A01 T01900186  RH  100%=      5-min Rain = 0
KTUR 261145Z 09004KT 19/19 A2998 RMK A01 T01910186  RH  100%=      5-min Rain = 0
KTUR 261150Z 09004KT 19/19 A2998 RMK A01 T01910186  RH  100%=      5-min Rain = 0
KTUR 261155Z 08005KT 19/19 A2998 RMK A01 T01910186  RH  100%=      5-min Rain = 0
KTUR 261200Z 08005KT 19/19 A2998 RMK A01 T01910187  RH  100%=      5-min Rain = 0
KTUR 261205Z 08005KT 19/19 A2998 RMK A01 T01910187  RH  100%=      5-min Rain = 0
KTUR 261210Z 09005KT 19/19 A2999 RMK A01 T01920188  RH  100%=      5-min Rain = 0
KTUR 261215Z 09005KT 19/19 A2999 RMK A01 T01920188  RH  100%=      5-min Rain = 0
KTUR 261220Z 09006KT 19/19 A2999 RMK A01 T01930188  RH  100%=      5-min Rain = 0
KTUR 261225Z 09005KT 19/19 A2999 RMK A01 T01930189  RH  100%=      5-min Rain = 0
KTUR 261230Z 09006KT 19/19 A2999 RMK A01 T01930189  RH  100%=      5-min Rain = 0
KTUR 261235Z 10006KT 19/19 A2999 RMK A01 T01930189  RH  100%=      5-min Rain = 0
KTUR 261240Z 10006KT 19/19 A2999 RMK A01 T01940190  RH  100%=      5-min Rain = 0
KTUR 261245Z 10006KT 19/19 A30 RMK A01 T01940190  RH  100%=      5-min Rain = 0
KTUR 261250Z 10007KT 20/19 A30 RMK A01 T01950190  RH  100%=      5-min Rain = 0
KTUR 261255Z 10008KT 20/19 A30 RMK A01 T01950191  RH  100%=      5-min Rain = 0
KTUR 261300Z 10008KT 20/19 A30 RMK A01 T01950191  RH  100%=      5-min Rain = 0
KTUR 261305Z 10009KT 20/19 A30 RMK A01 T01960192  RH  100%=      5-min Rain = 0
KTUR 261310Z 11009KT 20/19 A2999 RMK A01 T01970192  RH  100%=      5-min Rain = 0
KTUR 261315Z 11008KT 20/19 A30 RMK A01 T01970193  RH  100%=      5-min Rain = 0
KTUR 261320Z 11009KT 20/19 A30 RMK A01 T01980193  RH  100%=      5-min Rain = 0
KTUR 261325Z 11009KT 20/19 A30 RMK A01 T01990194  RH  100%=      5-min Rain = 0
KTUR 261330Z 11010KT 20/19 A30 RMK A01 T01990194  RH  099%=      5-min Rain = 0
KTUR 261335Z 11010KT 20/19 A30 RMK A01 T02000194  RH  099%=      5-min Rain = 0
KTUR 261340Z 12010KT 20/19 A30 RMK A01 T02000194  RH  099%=      5-min Rain = 0
KTUR 261345Z 12011KT 20/19 A30 RMK A01 T02000193  RH  099%=      5-min Rain = 0
KTUR 261350Z 12011KT 20/19 A30 RMK A01 T02000193  RH  099%=      5-min Rain = 0
KTUR 261355Z 12011KT 20/19 A30 RMK A01 T02000193  RH  099%=      5-min Rain = 0
KTUR 261400Z 12011KT 20/19 A30 RMK A01 T02000193  RH  099%=      5-min Rain = 0
KTUR 261405Z 12011KT 20/19 A30 RMK A01 T02000194  RH  099%=      5-min Rain = 0
KTUR 261410Z 12011KT 20/19 A30 RMK A01 T02000194  RH  099%=      5-min Rain = 0
KTUR 261415Z 12011KT 20/19 A30 RMK A01 T02010194  RH  098%=      5-min Rain = 0
KTUR 261420Z 13012KT 20/19 A3001 RMK A01 T02010194  RH  098%=      5-min Rain = 0
KTUR 261425Z 12011KT 20/19 A3001 RMK A01 T02010193  RH  098%=      5-min Rain = 0
KTUR 261430Z 12011KT 20/19 A3001 RMK A01 T02010193  RH  098%=      5-min Rain = 0
KTUR 261435Z 12010KT 20/19 A3001 RMK A01 T02010193  RH  098%=      5-min Rain = 0
KTUR 261440Z 11010KT 20/19 A3001 RMK A01 T02010193  RH  098%=      5-min Rain = 0
KTUR 261445Z 11010KT 20/19 A3001 RMK A01 T02000193  RH  098%=      5-min Rain = 0
KTUR 261450Z 11010KT 20/19 A3002 RMK A01 T02000192  RH  098%=      5-min Rain = 0
KTUR 261455Z 11011KT 20/19 A3002 RMK A01 T01990192  RH  098%=      5-min Rain = 0
KTUR 261500Z 12011KT 20/19 A3002 RMK A01 T01990191  RH  098%=      5-min Rain = 0
KTUR 261505Z 12011KT 20/19 A3001 RMK A01 T01990191  RH  098%=      5-min Rain = 0
KTUR 261510Z 12012KT 20/19 A3001 RMK A01 T01980191  RH  098%=      5-min Rain = 0
KTUR 261515Z 12013KT 20/19 A3001 RMK A01 T01980191  RH  098%=      5-min Rain = 0
KTUR 261520Z 13011KT 20/19 A3001 RMK A01 T01990192  RH  098%=      5-min Rain = 0
KTUR 261525Z 13013KT 20/19 A3001 RMK A01 T01990192  RH  098%=      5-min Rain = 0
KTUR 261530Z 13012KT 20/19 A3001 RMK A01 T01990192  RH  098%=      5-min Rain = 0
KTUR 261535Z 13013KT 20/19 A3001 RMK A01 T01990192  RH  098%=      5-min Rain = 0
KTUR 261540Z 13013KT 20/19 A3001 RMK A01 T02000193  RH  098%=      5-min Rain = 0
KTUR 261545Z 13012KT 20/19 A3001 RMK A01 T02000193  RH  098%=      5-min Rain = 0
KTUR 261550Z 13013KT 20/19 A3001 RMK A01 T02010193  RH  098%=      5-min Rain = 0
KTUR 261555Z 13013KT 20/19 A3001 RMK A01 T02010193  RH  098%=      5-min Rain = 0
KTUR 261600Z 13013KT 20/19 A3001 RMK A01 T02010193  RH  098%=      5-min Rain = 0
KTUR 261605Z 13012KT 20/19 A3001 RMK A01 T02010193  RH  098%=      5-min Rain = 0
KTUR 261610Z 13012KT 20/19 A3001 RMK A01 T02010193  RH  098%=      5-min Rain = 0
KTUR 261615Z 13013KT 20/19 A30 RMK A01 T02010193  RH  098%=      5-min Rain = 0
KTUR 261620Z 13012KT 20/19 A30 RMK A01 T02020194  RH  098%=      5-min Rain = 0
KTUR 261625Z 13012KT 20/19 A30 RMK A01 T02020193  RH  097%=      5-min Rain = 0
KTUR 261630Z 12011KT 20/19 A30 RMK A01 T02020194  RH  097%=      5-min Rain = 0
KTUR 261635Z 12013KT 20/19 A30 RMK A01 T02010192  RH  097%=      5-min Rain = 0
KTUR 261640Z 12014KT 20/19 A2999 RMK A01 T02010192  RH  097%=      5-min Rain = 0
KTUR 261645Z 12012KT 20/19 A2999 RMK A01 T02020193  RH  097%=      5-min Rain = 0
KTUR 261650Z 13012KT 20/19 A30 RMK A01 T02020192  RH  097%=      5-min Rain = 0
KTUR 261655Z 13012KT 20/19 A30 RMK A01 T02020193  RH  097%=      5-min Rain = 0
KTUR 261700Z 13012KT 20/19 A30 RMK A01 T02020192  RH  096%=      5-min Rain = 0
KTUR 261705Z 13012G17KT 20/19 A30 RMK A01 T02030193  RH  096%=      5-min Rain = 0
KTUR 261710Z 13014KT 20/19 A30 RMK A01 T02030192  RH  096%=      5-min Rain = 0
KTUR 261715Z 14013KT 20/19 A30 RMK A01 T02030192  RH  096%=      5-min Rain = 0
KTUR 261720Z 13012KT 20/19 A30 RMK A01 T02030192  RH  096%=      5-min Rain = 0
KTUR 261725Z 13012KT 20/19 A30 RMK A01 T02030192  RH  096%=      5-min Rain = 0
KTUR 261730Z 13013KT 20/19 A30 RMK A01 T02030192  RH  096%=      5-min Rain = 0
KTUR 261735Z 14013KT 20/19 A3001 RMK A01 T02030192  RH  095%=      5-min Rain = 0
KTUR 261740Z 14013KT 20/19 A3001 RMK A01 T02030191  RH  095%=      5-min Rain = 0
KTUR 261745Z 14012KT 21/19 A30 RMK A01 T02050192  RH  095%=      5-min Rain = 0
KTUR 261750Z 14012KT 21/19 A30 RMK A01 T02050192  RH  095%=      5-min Rain = 0
KTUR 261755Z 14012KT 20/19 A30 RMK A01 T02040192  RH  095%=      5-min Rain = 0
KTUR 261800Z 13012KT 20/19 A30 RMK A01 T02040193  RH  095%=      5-min Rain = 0
KTUR 261805Z 13014KT 20/19 A30 RMK A01 T02040191  RH  095%=      5-min Rain = 0
KTUR 261810Z 13012KT 21/19 A30 RMK A01 T02050192  RH  094%=      5-min Rain = 0
KTUR 261815Z 13012G17KT 21/19 A30 RMK A01 T02070193  RH  094%=      5-min Rain = 0
KTUR 261820Z 14013KT 21/19 A30 RMK A01 T02090192  RH  092%=      5-min Rain = 0
KTUR 261825Z 13013KT 21/19 A30 RMK A01 T02100192  RH  092%=      5-min Rain = 0
KTUR 261830Z 13013G18KT 21/19 A2999 RMK A01 T02110190  RH  090%=      5-min Rain = 0
KTUR 261835Z 13013KT 21/19 A2999 RMK A01 T02110191  RH  091%=      5-min Rain = 0
KTUR 261840Z 13013KT 21/19 A2999 RMK A01 T02110190  RH  091%=      5-min Rain = 0
KTUR 261845Z 13013KT 21/19 A2999 RMK A01 T02100190  RH  091%=      5-min Rain = 0
KTUR 261850Z 13013KT 21/19 A2999 RMK A01 T02110191  RH  091%=      5-min Rain = 0
KTUR 261855Z 13013G18KT 21/19 A2999 RMK A01 T02110191  RH  091%=      5-min Rain = 0
KTUR 261900Z 13013KT 21/19 A2999 RMK A01 T02110190  RH  091%=      5-min Rain = 0
KTUR 261905Z 13013KT 21/19 A2999 RMK A01 T02110190  RH  090%=      5-min Rain = 0
KTUR 261910Z 13013KT 21/19 A2999 RMK A01 T02120190  RH  089%=      5-min Rain = 0
KTUR 261915Z 13012KT 21/19 A2999 RMK A01 T02130190  RH  089%=      5-min Rain = 0
KTUR 261920Z 13011KT 21/19 A2999 RMK A01 T02130190  RH  089%=      5-min Rain = 0
KTUR 261925Z 14013KT 21/19 A2999 RMK A01 T02140190  RH  089%=      5-min Rain = 0
KTUR 261930Z 13011KT 22/19 A2999 RMK A01 T02150191  RH  088%=      5-min Rain = 0
KTUR 261935Z 14012KT 22/19 A2999 RMK A01 T02170191  RH  087%=      5-min Rain = 0
KTUR 261940Z 14013KT 22/19 A2999 RMK A01 T02170190  RH  087%=      5-min Rain = 0
KTUR 261945Z 14013KT 22/19 A2999 RMK A01 T02170190  RH  087%=      5-min Rain = 0
KTUR 261950Z 14014G19KT 22/19 A2999 RMK A01 T02170190  RH  087%=      5-min Rain = 0
KTUR 261955Z 14013G18KT 22/19 A2999 RMK A01 T02160191  RH  088%=      5-min Rain = 0
KTUR 262000Z 15012KT 22/19 A30 RMK A01 T02150192  RH  089%=      5-min Rain = 0
KTUR 262005Z 14014KT 21/19 A30 RMK A01 T02140192  RH  090%=      5-min Rain = 0
KTUR 262010Z 14013KT 21/19 A30 RMK A01 T02120193  RH  091%=      5-min Rain = 0
KTUR 262015Z 14011KT 21/19 A30 RMK A01 T02110194  RH  092%=      5-min Rain = 0
KTUR 262020Z 14011KT 21/19 A2999 RMK A01 T02100194  RH  093%=      5-min Rain = 0
KTUR 262025Z 14009KT 21/20 A2999 RMK A01 T02100195  RH  094%=      5-min Rain = 0
KTUR 262030Z 14009KT 21/20 A2999 RMK A01 T02090195  RH  094%=      5-min Rain = 0
KTUR 262035Z 14008KT 21/20 A2999 RMK A01 T02080196  RH  095%=      5-min Rain = 0
KTUR 262040Z 13007KT 21/20 A2999 RMK A01 T02090197  RH  096%=      5-min Rain = 0
KTUR 262045Z 14009KT 21/20 A2999 RMK A01 T02100198  RH  095%=      5-min Rain = 0
KTUR 262050Z 15010KT 21/20 A2998 RMK A01 T02120198  RH  094%=      5-min Rain = 0.01
KTUR 262055Z 14011KT 21/20 A2998 RMK A01 T02140199  RH  094%=      5-min Rain = 0
KTUR 262100Z 14011KT 22/20 A2998 RMK A01 T02150200  RH  093%=      5-min Rain = 0
KTUR 262105Z 14012KT 22/20 A2997 RMK A01 T02170200  RH  092%=      5-min Rain = 0
KTUR 262110Z 14012KT 22/20 A2997 RMK A01 T02200200  RH  091%=      5-min Rain = 0
KTUR 262115Z 15014G20KT 22/20 A2997 RMK A01 T02210198  RH  089%=      5-min Rain = 0
KTUR 262120Z 14016G21KT 22/20 A2997 RMK A01 T02230197  RH  088%=      5-min Rain = 0
KTUR 262125Z 14015KT 22/20 A2996 RMK A01 T02240198  RH  088%=      5-min Rain = 0
KTUR 262130Z 14017G23KT 22/20 A2996 RMK A01 T02240197  RH  087%=      5-min Rain = 0
KTUR 262135Z 14016G21KT 23/20 A2995 RMK A01 T02250198  RH  087%=      5-min Rain = 0
KTUR 262140Z 13016G21KT 23/20 A2994 RMK A01 T02260199  RH  087%=      5-min Rain = 0
KTUR 262145Z 13017G22KT 23/20 A2994 RMK A01 T02290199  RH  086%=      5-min Rain = 0
KTUR 262150Z 14019KT 23/20 A2994 RMK A01 T02290197  RH  085%=      5-min Rain = 0
KTUR 262155Z 13017G22KT 23/20 A2994 RMK A01 T02290198  RH  085%=      5-min Rain = 0
KTUR 262200Z 13017G22KT 23/20 A2993 RMK A01 T02300199  RH  085%=      5-min Rain = 0
KTUR 262205Z 13018KT 23/20 A2993 RMK A01 T02310199  RH  085%=      5-min Rain = 0
KTUR 262210Z 13019KT 23/20 A2992 RMK A01 T02290196  RH  084%=      5-min Rain = 0
KTUR 262215Z 13018KT 23/20 A2992 RMK A01 T02300198  RH  084%=      5-min Rain = 0
KTUR 262220Z 13015KT 23/20 A2992 RMK A01 T02290198  RH  085%=      5-min Rain = 0
KTUR 262225Z 13017KT 23/20 A2991 RMK A01 T02300198  RH  084%=      5-min Rain = 0
KTUR 262230Z 13017KT 23/20 A2991 RMK A01 T02310198  RH  084%=      5-min Rain = 0
KTUR 262235Z 13016KT 23/20 A2991 RMK A01 T02320198  RH  084%=      5-min Rain = 0
KTUR 262240Z 13018G24KT 23/20 A2991 RMK A01 T02320197  RH  083%=      5-min Rain = 0
KTUR 262245Z 13017G24KT 23/20 A2991 RMK A01 T02330198  RH  083%=      5-min Rain = 0
KTUR 262250Z 13017KT 23/20 A2991 RMK A01 T02330197  RH  083%=      5-min Rain = 0
KTUR 262255Z 13017KT 23/20 A2991 RMK A01 T02340197  RH  082%=      5-min Rain = 0
KTUR 262300Z 13016G22KT 23/20 A2991 RMK A01 T02340198  RH  082%=      5-min Rain = 0
KTUR 262305Z 13016G22KT 23/20 A2991 RMK A01 T02340197  RH  082%=      5-min Rain = 0
KTUR 262310Z 12015KT 23/20 A299 RMK A01 T02330197  RH  082%=      5-min Rain = 0
KTUR 262315Z 12015G22KT 23/20 A299 RMK A01 T02330197  RH  082%=      5-min Rain = 0
KTUR 262320Z 12013KT 23/20 A299 RMK A01 T02340199  RH  083%=      5-min Rain = 0
KTUR 262325Z 12014KT 23/20 A299 RMK A01 T02340198  RH  083%=      5-min Rain = 0
KTUR 262330Z 12014G19KT 23/20 A299 RMK A01 T02340198  RH  083%=      5-min Rain = 0
KTUR 262335Z 11014KT 23/20 A2989 RMK A01 T02340199  RH  083%=      5-min Rain = 0
KTUR 262340Z 11015G20KT 23/20 A2989 RMK A01 T02330198  RH  083%=      5-min Rain = 0
KTUR 262345Z 12016KT 23/20 A2989 RMK A01 T02330197  RH  082%=      5-min Rain = 0
KTUR 262350Z 11013KT 23/20 A2988 RMK A01 T02320198  RH  083%=      5-min Rain = 0
KTUR 262355Z 11014KT 23/20 A2987 RMK A01 T02330199  RH  084%=      5-min Rain = 0
KTUR 270000Z 11015KT 23/20 A2986 RMK A01 T02330199  RH  083%=      5-min Rain = 0
KTUR 270005Z 11015G20KT 24/20 A2986 RMK A01 T02350198  RH  082%=      5-min Rain = 0
KTUR 270010Z 11016KT 24/20 A2986 RMK A01 T02370199  RH  081%=      5-min Rain = 0
KTUR 270015Z 11014G19KT 24/20 A2986 RMK A01 T02380200  RH  082%=      5-min Rain = 0
KTUR 270020Z 11015KT 24/20 A2986 RMK A01 T02380200  RH  081%=      5-min Rain = 0
KTUR 270025Z 11015G20KT 24/20 A2985 RMK A01 T02390200  RH  081%=      5-min Rain = 0
KTUR 270030Z 12016G21KT 24/20 A2985 RMK A01 T02370200  RH  082%=      5-min Rain = 0
KTUR 270035Z 12013G18KT 24/20 A2986 RMK A01 T02370201  RH  082%=      5-min Rain = 0
KTUR 270040Z 12014KT 24/20 A2986 RMK A01 T02370200  RH  082%=      5-min Rain = 0
KTUR 270045Z 12016G22KT 24/20 A2985 RMK A01 T02370199  RH  082%=      5-min Rain = 0
KTUR 270050Z 12016KT 24/20 A2985 RMK A01 T02360198  RH  081%=      5-min Rain = 0
KTUR 270055Z 12016KT 24/20 A2984 RMK A01 T02360198  RH  082%=      5-min Rain = 0
KTUR 270100Z 13016G23KT 24/20 A2984 RMK A01 T02350198  RH  082%=      5-min Rain = 0
KTUR 270105Z 12017G22KT 24/20 A2982 RMK A01 T02350196  RH  081%=      5-min Rain = 0
KTUR 270110Z 12017G23KT 23/20 A2982 RMK A01 T02330196  RH  082%=      5-min Rain = 0
KTUR 270115Z 13019G25KT 23/20 A2982 RMK A01 T02330195  RH  082%=      5-min Rain = 0
KTUR 270120Z 13017G23KT 23/20 A2983 RMK A01 T02320195  RH  082%=      5-min Rain = 0
KTUR 270125Z 13014KT 23/20 A2984 RMK A01 T02310195  RH  082%=      5-min Rain = 0
KTUR 270130Z 14014G19KT 23/19 A2985 RMK A01 T02310194  RH  082%=      5-min Rain = 0
KTUR 270135Z 15012KT 23/20 A2985 RMK A01 T02300195  RH  082%=      5-min Rain = 0
KTUR 270140Z 15012KT 23/19 A2985 RMK A01 T02290194  RH  083%=      5-min Rain = 0
KTUR 270145Z 15012G17KT 23/19 A2985 RMK A01 T02280194  RH  083%=      5-min Rain = 0
KTUR 270150Z 15011KT 23/19 A2985 RMK A01 T02270194  RH  084%=      5-min Rain = 0
KTUR 270155Z 14012KT 23/19 A2985 RMK A01 T02280193  RH  083%=      5-min Rain = 0
KTUR 270200Z 14012KT 23/19 A2985 RMK A01 T02280193  RH  083%=      5-min Rain = 0
KTUR 270205Z 14010KT 23/19 A2986 RMK A01 T02270193  RH  083%=      5-min Rain = 0
KTUR 270210Z 14009KT 23/19 A2985 RMK A01 T02260193  RH  084%=      5-min Rain = 0
KTUR 270215Z 14009KT 23/19 A2986 RMK A01 T02250193  RH  084%=      5-min Rain = 0
KTUR 270220Z 13009KT 22/19 A2986 RMK A01 T02240192  RH  084%=      5-min Rain = 0
KTUR 270225Z 13009KT 22/19 A2987 RMK A01 T02230192  RH  085%=      5-min Rain = 0
KTUR 270230Z 14008KT 22/19 A2987 RMK A01 T02220192  RH  085%=      5-min Rain = 0
KTUR 270235Z 14008KT 22/19 A2988 RMK A01 T02220193  RH  086%=      5-min Rain = 0
KTUR 270240Z 14009KT 22/19 A2988 RMK A01 T02220193  RH  086%=      5-min Rain = 0
KTUR 270245Z 14009KT 22/19 A2988 RMK A01 T02220193  RH  086%=      5-min Rain = 0
KTUR 270250Z 14009KT 22/19 A2988 RMK A01 T02210192  RH  086%=      5-min Rain = 0
KTUR 270255Z 14009KT 22/19 A2988 RMK A01 T02200192  RH  086%=      5-min Rain = 0
KTUR 270300Z 14010KT 22/19 A2988 RMK A01 T02190191  RH  087%=      5-min Rain = 0
KTUR 270305Z 13011KT 22/19 A2987 RMK A01 T02170191  RH  087%=      5-min Rain = 0
KTUR 270310Z 13011KT 22/19 A2987 RMK A01 T02170191  RH  087%=      5-min Rain = 0
KTUR 270315Z 13011KT 22/19 A2987 RMK A01 T02160190  RH  087%=      5-min Rain = 0
KTUR 270320Z 14010KT 22/19 A2988 RMK A01 T02150190  RH  088%=      5-min Rain = 0
KTUR 270325Z 13010KT 22/19 A2987 RMK A01 T02160189  RH  087%=      5-min Rain = 0
KTUR 270330Z 13011KT 22/19 A2987 RMK A01 T02150189  RH  087%=      5-min Rain = 0
KTUR 270335Z 13011KT 21/19 A2986 RMK A01 T02140189  RH  088%=      5-min Rain = 0
KTUR 270340Z 13011KT 21/19 A2986 RMK A01 T02120188  RH  088%=      5-min Rain = 0
KTUR 270345Z 13010KT 21/19 A2987 RMK A01 T02120188  RH  088%=      5-min Rain = 0
KTUR 270350Z 13010KT 21/19 A2987 RMK A01 T02120187  RH  088%=      5-min Rain = 0
KTUR 270355Z 13010KT 21/19 A2987 RMK A01 T02110187  RH  088%=      5-min Rain = 0
KTUR 270400Z 13009KT 21/19 A2987 RMK A01 T02100187  RH  089%=      5-min Rain = 0
KTUR 270405Z 12009KT 21/19 A2986 RMK A01 T02090186  RH  089%=      5-min Rain = 0
KTUR 270410Z 12009KT 21/19 A2986 RMK A01 T02080186  RH  089%=      5-min Rain = 0
KTUR 270415Z 12009KT 21/19 A2986 RMK A01 T02070185  RH  089%=      5-min Rain = 0
KTUR 270420Z 12009KT 21/19 A2986 RMK A01 T02070185  RH  090%=      5-min Rain = 0
KTUR 270425Z 12008KT 21/19 A2986 RMK A01 T02060185  RH  090%=      5-min Rain = 0
KTUR 270430Z 12009KT 21/18 A2986 RMK A01 T02050184  RH  090%=      5-min Rain = 0
KTUR 270435Z 12007KT 20/18 A2986 RMK A01 T02040184  RH  090%=      5-min Rain = 0
KTUR 270440Z 11006KT 20/18 A2986 RMK A01 T02030183  RH  090%=      5-min Rain = 0
KTUR 270445Z 11005KT 20/18 A2986 RMK A01 T02030183  RH  090%=      5-min Rain = 0
KTUR 270450Z 09004KT 20/18 A2986 RMK A01 T02030182  RH  090%=      5-min Rain = 0
KTUR 270455Z 36004KT 20/18 A2986 RMK A01 T02000180  RH  091%=      5-min Rain = 0

Page generated in 0.0091 seconds.